createdAt,value
2023-07-03T00:00:19.069Z,15.63
2023-07-03T00:05:48.310Z,15.54
2023-07-03T00:11:01.256Z,15.43
2023-07-03T00:16:07.613Z,15.30
2023-07-03T00:21:13.145Z,15.19
2023-07-03T00:26:18.598Z,15.06
2023-07-03T00:31:24.134Z,14.94
2023-07-03T00:36:34.272Z,14.87
2023-07-03T00:41:41.335Z,14.84
2023-07-03T00:47:04.656Z,14.77
2023-07-03T00:58:14.192Z,14.53
2023-07-03T01:03:46.333Z,14.31
2023-07-03T01:09:03.011Z,14.09
2023-07-03T01:14:10.689Z,13.99
2023-07-03T01:19:31.519Z,13.94
2023-07-03T01:24:55.195Z,13.88
2023-07-03T01:30:17.106Z,13.86
2023-07-03T01:35:30.088Z,13.80
2023-07-03T01:41:24.634Z,13.74
2023-07-03T01:46:52.743Z,13.63
2023-07-03T01:52:19.514Z,13.60
2023-07-03T01:57:51.059Z,13.63
2023-07-03T02:03:38.117Z,13.64
2023-07-03T02:08:59.834Z,13.63
2023-07-03T02:14:13.314Z,13.55
2023-07-03T02:19:32.279Z,13.49
2023-07-03T02:24:44.925Z,13.52
2023-07-03T02:30:00.894Z,13.61
2023-07-03T02:35:19.064Z,13.71
2023-07-03T02:40:48.197Z,13.79
2023-07-03T02:46:41.287Z,13.84
2023-07-03T02:52:05.961Z,13.83
2023-07-03T02:57:29.076Z,13.85
2023-07-03T03:02:48.800Z,13.92
2023-07-03T03:08:13.605Z,14.07
2023-07-03T03:13:50.775Z,14.18
2023-07-03T03:19:30.983Z,14.22
2023-07-03T03:25:37.051Z,14.28
2023-07-03T03:31:09.944Z,14.29
2023-07-03T03:36:19.713Z,14.37
2023-07-03T03:41:31.910Z,14.51
2023-07-03T03:46:55.045Z,14.75
2023-07-03T03:52:26.966Z,15.01
2023-07-03T03:57:36.583Z,15.23
2023-07-03T04:02:51.870Z,15.41
2023-07-03T04:08:12.296Z,15.55
2023-07-03T04:13:34.867Z,15.83
2023-07-03T04:19:10.548Z,16.13
2023-07-03T04:24:44.878Z,16.31
2023-07-03T04:30:16.404Z,16.48
2023-07-03T04:35:49.369Z,16.65
2023-07-03T04:41:39.984Z,16.82
2023-07-03T04:47:13.511Z,16.93
2023-07-03T04:52:35.128Z,17.30
2023-07-03T04:58:18.512Z,18.12
2023-07-03T05:03:53.321Z,19.55
2023-07-03T05:09:16.808Z,21.28
2023-07-03T05:14:25.877Z,24.32
2023-07-03T05:19:32.898Z,27.51
2023-07-03T05:24:38.803Z,29.82
2023-07-03T05:29:54.266Z,31.64
2023-07-03T05:35:27.014Z,33.13
2023-07-03T05:40:35.677Z,34.40
2023-07-03T05:45:41.795Z,35.39
2023-07-03T05:50:51.005Z,36.18
2023-07-03T05:56:08.357Z,37.09
2023-07-03T06:01:19.000Z,37.52
2023-07-03T06:06:28.122Z,37.69
2023-07-03T06:11:38.889Z,38.15
2023-07-03T06:17:05.083Z,38.38
2023-07-03T06:22:21.501Z,38.61
2023-07-03T06:27:30.206Z,38.85
2023-07-03T06:32:35.866Z,39.15
2023-07-03T06:37:41.690Z,39.38
2023-07-03T06:42:47.370Z,39.53
2023-07-03T06:47:57.968Z,39.75
2023-07-03T06:53:03.585Z,39.72
2023-07-03T06:58:11.524Z,39.33
2023-07-03T07:03:18.414Z,38.27
2023-07-03T07:08:24.137Z,38.39
2023-07-03T07:13:29.647Z,37.50
2023-07-03T07:18:35.293Z,37.85
2023-07-03T07:23:41.252Z,38.46
2023-07-03T07:28:46.989Z,39.11
2023-07-03T07:33:52.562Z,39.28
2023-07-03T07:38:59.482Z,39.79
2023-07-03T07:44:05.686Z,40.01
2023-07-03T07:49:11.811Z,40.25
2023-07-03T07:54:17.626Z,40.19
2023-07-03T07:59:23.630Z,40.43
2023-07-03T08:04:30.746Z,40.42
2023-07-03T08:09:36.754Z,40.57
2023-07-03T08:14:43.319Z,40.68
2023-07-03T08:19:49.169Z,40.39
2023-07-03T08:24:54.992Z,40.49
2023-07-03T08:30:00.454Z,40.46
2023-07-03T08:40:20.792Z,39.80
2023-07-03T08:45:35.738Z,39.62
2023-07-03T08:50:50.432Z,39.61
2023-07-03T08:56:02.376Z,38.94
2023-07-03T09:01:19.290Z,38.63
2023-07-03T09:06:30.233Z,38.15
2023-07-03T09:11:43.709Z,37.89
2023-07-03T09:16:51.653Z,37.67
2023-07-03T09:22:03.389Z,37.03
2023-07-03T09:27:15.919Z,37.72
2023-07-03T09:32:33.309Z,38.26
2023-07-03T09:37:41.534Z,37.08
2023-07-03T09:42:49.735Z,35.87
2023-07-03T09:48:11.347Z,34.45
2023-07-03T09:53:21.816Z,34.27
2023-07-03T09:58:30.207Z,33.95
2023-07-03T10:03:38.092Z,33.72
2023-07-03T10:08:48.974Z,33.55
2023-07-03T10:13:56.009Z,34.03
2023-07-03T10:19:02.839Z,34.71
2023-07-03T10:24:10.932Z,35.37
2023-07-03T10:29:25.457Z,35.89
2023-07-03T10:34:38.484Z,35.98
2023-07-03T10:39:53.190Z,35.57
2023-07-03T10:45:05.090Z,35.85
2023-07-03T10:50:11.512Z,35.67
2023-07-03T10:55:28.359Z,35.57
2023-07-03T11:00:41.768Z,35.86
2023-07-03T11:05:53.693Z,36.04
2023-07-03T11:11:08.388Z,36.13
2023-07-03T11:16:16.240Z,36.29
2023-07-03T11:31:57.196Z,33.09
2023-07-03T11:37:23.352Z,31.89
2023-07-03T11:47:37.507Z,30.10
2023-07-03T11:52:48.551Z,29.31
2023-07-03T11:58:19.989Z,28.67
2023-07-03T12:03:53.315Z,27.93
2023-07-03T12:09:23.258Z,27.59
2023-07-03T12:14:41.102Z,28.50
2023-07-03T12:19:48.542Z,29.00
2023-07-03T12:25:03.964Z,29.75
2023-07-03T12:30:13.019Z,29.39
2023-07-03T12:35:23.832Z,28.73
2023-07-03T12:40:30.118Z,28.43
2023-07-03T12:45:35.991Z,29.14
2023-07-03T12:50:53.743Z,29.82
2023-07-03T12:56:04.078Z,29.90
2023-07-03T13:01:09.965Z,29.92
2023-07-03T13:06:17.786Z,29.95
2023-07-03T13:11:38.445Z,30.26
2023-07-03T13:16:46.490Z,29.72
2023-07-03T13:21:53.270Z,29.08
2023-07-03T13:26:59.877Z,29.14
2023-07-03T13:32:16.509Z,29.03
2023-07-03T13:37:25.852Z,28.60
2023-07-03T13:42:32.197Z,28.46
2023-07-03T13:47:37.602Z,28.70
2023-07-03T13:52:43.377Z,28.86
2023-07-03T13:57:48.866Z,28.74
2023-07-03T14:02:54.581Z,28.59
2023-07-03T14:08:00.568Z,28.94
2023-07-03T14:13:06.800Z,29.22
2023-07-03T14:18:12.328Z,29.02
2023-07-03T14:23:18.729Z,28.69
2023-07-03T14:28:24.811Z,28.32
2023-07-03T14:33:30.584Z,28.03
2023-07-03T14:38:36.207Z,27.86
2023-07-03T14:43:41.865Z,27.60
2023-07-03T14:48:47.546Z,27.26
2023-07-03T14:53:53.081Z,27.28
2023-07-03T14:58:58.778Z,27.47
2023-07-03T15:04:05.987Z,27.18
2023-07-03T15:09:11.871Z,26.81
2023-07-03T15:14:17.523Z,26.75
2023-07-03T15:19:23.270Z,26.65
2023-07-03T15:24:28.896Z,26.45
2023-07-03T15:29:34.417Z,26.25
2023-07-03T15:34:40.412Z,26.14
2023-07-03T15:39:46.240Z,26.24
2023-07-03T15:44:57.565Z,26.35
2023-07-03T15:50:06.404Z,26.29
2023-07-03T15:55:12.389Z,26.09
2023-07-03T16:00:19.364Z,26.01
2023-07-03T16:05:24.986Z,26.09
2023-07-03T16:10:30.925Z,26.15
2023-07-03T16:15:36.953Z,26.19
2023-07-03T16:20:44.785Z,26.00
2023-07-03T16:26:03.105Z,25.77
2023-07-03T16:31:13.444Z,25.65
2023-07-03T16:36:26.037Z,25.63
2023-07-03T16:41:37.984Z,25.61
2023-07-03T16:46:44.362Z,25.60
2023-07-03T16:57:57.708Z,25.42
2023-07-03T17:03:18.722Z,25.38
2023-07-03T17:08:28.818Z,25.35
2023-07-03T17:13:35.190Z,25.30
2023-07-03T17:18:41.474Z,25.28
2023-07-03T17:23:49.337Z,25.20
2023-07-03T17:29:01.581Z,25.16
2023-07-03T17:34:07.071Z,25.16
2023-07-03T17:39:12.696Z,25.09
2023-07-03T17:44:18.175Z,24.91
2023-07-03T17:49:23.921Z,24.70
2023-07-03T17:54:29.996Z,24.53
2023-07-03T17:59:35.753Z,24.37
2023-07-03T18:04:41.907Z,24.20
2023-07-03T18:09:47.471Z,24.10
2023-07-03T18:14:53.456Z,23.93
2023-07-03T18:19:59.005Z,23.76
2023-07-03T18:25:06.515Z,23.60
2023-07-03T18:30:37.095Z,23.47
2023-07-03T18:36:00.000Z,23.38
2023-07-03T18:41:29.208Z,23.23
2023-07-03T18:46:47.253Z,23.06
2023-07-03T18:51:55.389Z,22.90
2023-07-03T18:57:01.047Z,22.80
2023-07-03T19:02:07.327Z,22.61
2023-07-03T19:07:14.800Z,22.41
2023-07-03T19:12:24.572Z,22.13
2023-07-03T19:17:30.633Z,21.90
2023-07-03T19:27:08.992Z,21.71
2023-07-03T19:32:14.882Z,21.62
2023-07-03T19:37:21.089Z,21.50
2023-07-03T19:42:26.761Z,21.35
2023-07-03T19:47:32.398Z,21.20
2023-07-03T19:52:38.724Z,21.01
2023-07-03T19:57:45.039Z,20.83
2023-07-03T20:02:50.891Z,20.68
2023-07-03T20:07:56.852Z,20.50
2023-07-03T20:13:03.124Z,20.31
2023-07-03T20:18:12.777Z,20.11
2023-07-03T20:23:21.123Z,19.91
2023-07-03T20:28:27.140Z,19.68
2023-07-03T20:33:34.050Z,19.45
2023-07-03T20:38:40.492Z,19.20
2023-07-03T20:43:46.772Z,18.94
2023-07-03T20:48:55.340Z,18.69
2023-07-03T20:54:03.350Z,18.45
2023-07-03T20:59:10.789Z,18.15
2023-07-03T21:04:16.403Z,17.88
2023-07-03T21:09:21.955Z,17.55
2023-07-03T21:14:27.760Z,17.26
2023-07-03T21:19:33.949Z,17.02
2023-07-03T21:24:39.524Z,16.78
2023-07-03T21:29:47.238Z,16.57
2023-07-03T21:34:52.979Z,16.42
2023-07-03T21:39:59.111Z,16.28
2023-07-03T21:45:05.081Z,16.18
2023-07-03T21:50:12.408Z,16.07
2023-07-03T21:55:17.953Z,15.96
2023-07-03T22:00:24.280Z,15.87
2023-07-03T22:05:29.966Z,15.78
2023-07-03T22:10:35.601Z,15.70
2023-07-03T22:15:41.146Z,15.61
2023-07-03T22:20:53.009Z,15.52
2023-07-03T22:26:01.569Z,15.42
2023-07-03T22:31:10.703Z,15.42
2023-07-03T22:36:16.471Z,15.45
2023-07-03T22:41:23.514Z,15.52
2023-07-03T22:46:29.323Z,15.50
2023-07-03T22:51:35.136Z,15.47
2023-07-03T22:56:41.058Z,15.40
2023-07-03T23:01:49.133Z,15.29
2023-07-03T23:06:55.404Z,15.18
2023-07-03T23:12:01.605Z,15.06
2023-07-03T23:17:09.416Z,14.93
2023-07-03T23:22:15.043Z,14.82
2023-07-03T23:27:21.896Z,14.79
2023-07-03T23:32:28.809Z,14.81
2023-07-03T23:37:34.562Z,14.91
2023-07-03T23:42:40.420Z,14.91
2023-07-03T23:47:48.240Z,14.90
2023-07-03T23:52:54.415Z,14.83
2023-07-03T23:58:00.199Z,14.75
